Time;durP1;ratioP1;P1;durP2;ratioP2;P2;SDS_P1;SDS_P2;PMS_P1;PMS_P2;Temp;Humidity;BMP_temperature;BMP_pressure;BME280_temperature;BME280_humidity;BME280_pressure;Samples;Min_cycle;Max_cycle;Signal;HPM_P1;HPM_P2
2021/08/31 00:00:38;;;;;;;10.93;9.77;;;;;;;17.66;68.18;95464.44;5050308;28;20120;-65
2021/08/31 00:03:04;;;;;;;13.55;12.15;;;;;;;18.79;64.63;95470.56;5050558;28;20122;-66
2021/08/31 00:05:29;;;;;;;13.65;10.57;;;;;;;18.53;66.21;95477.22;5050282;28;20037;-66
2021/08/31 00:07:54;;;;;;;10.23;8.85;;;;;;;18.36;65.75;95470.22;5050406;28;20179;-65
2021/08/31 00:10:20;;;;;;;8.50;7.63;;;;;;;18.06;66.81;95469.03;5052588;28;20021;-66
2021/08/31 00:12:45;;;;;;;9.60;8.70;;;;;;;18.35;66.11;95484.81;5050474;28;20045;-66
2021/08/31 00:15:11;;;;;;;12.10;10.70;;;;;;;18.19;66.85;95492.09;5050037;28;20383;-65
2021/08/31 00:17:36;;;;;;;11.77;10.68;;;;;;;18.53;66.01;95497.97;5050136;28;20032;-65
2021/08/31 00:20:04;;;;;;;13.10;11.82;;;;;;;18.31;67.38;95496.63;5049253;28;20041;-69
2021/08/31 00:22:29;;;;;;;17.95;12.52;;;;;;;18.07;67.62;95494.84;5050230;28;20056;-65
2021/08/31 00:24:54;;;;;;;12.95;11.57;;;;;;;18.23;66.45;95476.03;5050213;28;20025;-65
2021/08/31 00:27:20;;;;;;;14.85;12.75;;;;;;;18.67;66.42;95509.09;5050093;28;20052;-65
2021/08/31 00:29:45;;;;;;;14.55;12.75;;;;;;;18.45;66.25;95489.69;5050220;28;20032;-65
2021/08/31 00:32:10;;;;;;;15.32;13.57;;;;;;;18.74;65.67;95503.94;5049461;28;20228;-65
2021/08/31 00:34:36;;;;;;;15.45;13.90;;;;;;;18.50;65.88;95485.97;5050217;28;20035;-65
2021/08/31 00:37:01;;;;;;;14.52;13.13;;;;;;;18.78;65.52;95509.41;5052137;28;20104;-65
2021/08/31 00:39:27;;;;;;;13.40;12.05;;;;;;;17.98;67.37;95484.22;5049608;28;20483;-65
2021/08/31 00:41:53;;;;;;;13.20;11.88;;;;;;;18.05;67.60;95492.47;5050046;28;20106;-64
2021/08/31 00:44:22;;;;;;;15.93;12.35;;;;;;;18.08;66.90;95497.19;5049554;28;20196;-64
2021/08/31 00:47:04;;;;;;;12.27;11.05;;;;;;;17.89;68.51;95495.09;5049113;28;20059;-65
2021/08/31 00:49:30;;;;;;;14.35;11.95;;;;;;;17.95;68.37;95506.41;5048964;28;20104;-65
2021/08/31 00:51:59;;;;;;;14.48;12.98;;;;;;;17.95;67.26;95482.19;5051822;28;20113;-64
2021/08/31 00:54:26;;;;;;;14.52;13.13;;;;;;;18.74;64.97;95516.63;5049689;28;20498;-65
2021/08/31 00:56:52;;;;;;;15.75;12.82;;;;;;;17.83;68.32;95495.69;5048116;28;20535;-64
2021/08/31 00:59:20;;;;;;;19.05;14.85;;;;;;;18.72;65.24;95525.03;5048298;28;20052;-65
2021/08/31 01:01:47;;;;;;;13.50;12.10;;;;;;;17.67;68.63;95517.91;5049088;28;20021;-65
2021/08/31 01:04:12;;;;;;;13.52;12.15;;;;;;;17.60;69.32;95519.59;5051194;28;20056;-64
2021/08/31 01:06:38;;;;;;;14.70;13.18;;;;;;;18.35;66.25;95510.97;5049443;28;20650;-64
2021/08/31 01:09:04;;;;;;;17.63;13.50;;;;;;;18.35;66.38;95519.06;5049418;28;20111;-64
2021/08/31 01:11:30;;;;;;;15.48;13.85;;;;;;;18.15;67.26;95515.44;5049350;28;20045;-64
2021/08/31 01:13:55;;;;;;;14.15;12.85;;;;;;;17.76;68.75;95520.50;5048296;28;20090;-64
2021/08/31 01:16:21;;;;;;;15.50;13.70;;;;;;;18.34;66.30;95485.16;5050449;28;20029;-64
2021/08/31 01:18:46;;;;;;;15.43;13.88;;;;;;;18.77;65.04;95514.00;5047951;28;20047;-64
2021/08/31 01:21:12;;;;;;;17.40;14.13;;;;;;;18.91;64.04;95517.06;5049325;28;20053;-64
2021/08/31 01:23:37;;;;;;;16.33;13.70;;;;;;;18.20;66.60;95520.56;5049246;28;20390;-66
2021/08/31 01:26:04;;;;;;;13.90;12.50;;;;;;;18.56;65.24;95508.84;5048828;28;20052;-65
2021/08/31 01:28:32;;;;;;;14.07;12.68;;;;;;;18.06;66.94;95523.63;5048137;28;20135;-65
2021/08/31 01:30:59;;;;;;;14.65;13.00;;;;;;;17.67;68.49;95501.75;5049406;28;20059;-65
2021/08/31 01:33:31;;;;;;;16.73;12.27;;;;;;;17.67;68.99;95507.16;5048913;28;20783;-65
2021/08/31 01:35:57;;;;;;;14.23;12.82;;;;;;;17.77;68.37;95532.81;5048775;28;20091;-65
2021/08/31 01:38:23;;;;;;;15.48;13.32;;;;;;;17.67;68.60;95517.13;5049032;28;20383;-65
2021/08/31 01:40:49;;;;;;;15.20;13.68;;;;;;;18.04;67.76;95523.22;5049100;28;20120;-65
2021/08/31 01:43:22;;;;;;;16.48;14.32;;;;;;;18.22;65.99;95517.53;5050696;28;20076;-65
2021/08/31 01:45:48;;;;;;;15.15;13.68;;;;;;;18.42;65.76;95522.69;5048088;28;20471;-65
2021/08/31 01:48:13;;;;;;;18.95;15.35;;;;;;;18.95;64.11;95517.16;5048603;28;20124;-66
2021/08/31 01:50:39;;;;;;;13.82;12.43;;;;;;;18.10;66.60;95521.06;5048606;28;20041;-66
2021/08/31 01:53:05;;;;;;;18.58;13.90;;;;;;;18.13;66.99;95536.53;5048401;28;20041;-64
2021/08/31 01:55:31;;;;;;;13.88;12.48;;;;;;;17.92;67.59;95517.88;5048281;28;20055;-64
2021/08/31 01:57:57;;;;;;;15.98;13.52;;;;;;;18.44;65.89;95523.16;5050658;28;20025;-64
2021/08/31 02:00:22;;;;;;;18.40;13.68;;;;;;;18.98;64.02;95524.53;5046994;28;20082;-64
2021/08/31 02:02:47;;;;;;;13.57;12.32;;;;;;;17.68;68.28;95532.13;5046858;28;20033;-64
2021/08/31 02:05:13;;;;;;;16.13;13.18;;;;;;;18.35;66.49;95519.81;5048101;28;20474;-64
2021/08/31 02:07:38;;;;;;;13.55;11.52;;;;;;;17.60;68.36;95522.28;5048233;28;20087;-65
2021/08/31 02:10:05;;;;;;;12.52;11.30;;;;;;;17.73;68.16;95512.31;5049178;28;20485;-64
2021/08/31 02:12:30;;;;;;;12.30;11.05;;;;;;;17.64;68.21;95526.63;5048448;28;20036;-64
2021/08/31 02:14:55;;;;;;;15.05;12.27;;;;;;;18.09;66.91;95511.41;5048446;28;20033;-65
2021/08/31 02:17:21;;;;;;;12.32;11.23;;;;;;;18.29;65.82;95502.34;5047540;28;20051;-64
2021/08/31 02:19:46;;;;;;;13.13;11.80;;;;;;;17.99;66.67;95522.66;5047369;28;20033;-63
2021/08/31 02:22:11;;;;;;;12.52;11.32;;;;;;;18.35;65.97;95519.81;5049939;28;20112;-64
2021/08/31 02:24:37;;;;;;;13.32;12.10;;;;;;;17.83;67.67;95518.00;5047250;28;20051;-64
2021/08/31 02:27:03;;;;;;;13.52;12.13;;;;;;;18.28;66.22;95524.25;5047151;28;20542;-64
2021/08/31 02:29:28;;;;;;;17.35;12.02;;;;;;;17.90;67.44;95525.50;5048874;28;20040;-64
2021/08/31 02:31:53;;;;;;;15.55;12.40;;;;;;;18.31;65.45;95518.94;5046557;28;20371;-64
2021/08/31 02:34:19;;;;;;;15.00;12.95;;;;;;;17.98;66.81;95538.03;5049776;28;20433;-64
2021/08/31 02:36:44;;;;;;;13.68;12.30;;;;;;;17.95;67.37;95527.16;5048125;28;20048;-64
2021/08/31 02:39:09;;;;;;;13.82;12.35;;;;;;;17.87;67.52;95528.88;5048423;28;20029;-64
2021/08/31 02:41:35;;;;;;;13.30;12.00;;;;;;;18.12;66.68;95532.28;5048228;28;20045;-64
2021/08/31 02:44:00;;;;;;;13.32;11.90;;;;;;;18.18;66.08;95526.31;5048063;28;20379;-64
2021/08/31 02:46:25;;;;;;;14.38;12.98;;;;;;;18.26;66.32;95540.72;5049412;28;20025;-64
2021/08/31 02:48:51;;;;;;;14.30;13.00;;;;;;;18.33;66.32;95540.16;5047929;28;20040;-65
2021/08/31 02:51:16;;;;;;;15.70;12.48;;;;;;;17.85;67.74;95529.19;5048019;28;20033;-64
2021/08/31 02:53:42;;;;;;;13.52;12.15;;;;;;;18.06;66.71;95526.34;5048061;28;20090;-64
2021/08/31 02:56:07;;;;;;;16.30;13.02;;;;;;;18.28;66.28;95533.13;5047701;28;20479;-65
2021/08/31 02:58:32;;;;;;;20.63;14.00;;;;;;;18.05;66.67;95534.75;5047916;28;20021;-64
2021/08/31 03:03:49;;;;;;;15.60;13.17;;;;;;;17.86;67.43;95528.09;5042201;28;20041;-64
2021/08/31 03:06:14;;;;;;;17.48;14.18;;;;;;;17.87;67.17;95515.44;5051713;28;20041;-64
2021/08/31 03:08:39;;;;;;;19.20;14.88;;;;;;;17.89;67.33;95529.31;5052355;28;20032;-64
2021/08/31 03:11:05;;;;;;;16.25;12.98;;;;;;;17.67;67.75;95534.03;5051880;28;20037;-66
2021/08/31 03:13:30;;;;;;;20.15;15.38;;;;;;;17.81;66.66;95530.22;5051810;28;20421;-64
2021/08/31 03:15:55;;;;;;;19.45;15.95;;;;;;;18.56;64.75;95530.38;5052842;28;20430;-65
2021/08/31 03:18:21;;;;;;;14.90;13.40;;;;;;;18.29;65.22;95536.59;5051429;28;20936;-64
2021/08/31 03:20:46;;;;;;;18.33;15.18;;;;;;;18.99;63.49;95544.19;5051555;28;20029;-63
2021/08/31 03:23:11;;;;;;;21.13;15.43;;;;;;;19.07;62.20;95545.94;5051478;28;20037;-64
2021/08/31 03:25:37;;;;;;;16.73;14.98;;;;;;;17.82;66.12;95535.28;5051161;28;20071;-64
2021/08/31 03:28:02;;;;;;;15.98;13.57;;;;;;;17.93;66.31;95539.06;5053445;28;20021;-64
2021/08/31 03:30:27;;;;;;;15.85;13.77;;;;;;;18.11;65.62;95553.00;5051572;28;20029;-64
2021/08/31 03:32:53;;;;;;;18.98;14.48;;;;;;;18.17;65.61;95556.28;5051024;28;20037;-64
2021/08/31 03:35:20;;;;;;;15.48;13.65;;;;;;;17.58;67.55;95549.53;5050872;28;20035;-64
2021/08/31 03:37:45;;;;;;;19.02;14.93;;;;;;;18.22;65.83;95555.22;5050731;28;20021;-64
2021/08/31 03:40:11;;;;;;;15.00;13.48;;;;;;;18.06;65.78;95553.25;5053521;28;20076;-64
2021/08/31 03:42:37;;;;;;;16.77;13.73;;;;;;;18.00;65.70;95554.63;5051273;28;20029;-65
2021/08/31 03:45:02;;;;;;;17.63;14.45;;;;;;;18.29;65.04;95547.34;5051243;28;20079;-68
2021/08/31 03:47:27;;;;;;;14.75;13.35;;;;;;;18.21;65.75;95526.72;5050621;28;20041;-65
2021/08/31 03:49:53;;;;;;;14.77;13.13;;;;;;;18.23;64.93;95551.44;5050168;28;20510;-65
2021/08/31 03:52:18;;;;;;;15.23;13.68;;;;;;;18.05;65.48;95565.16;5052982;28;20413;-64
2021/08/31 03:54:43;;;;;;;15.50;13.85;;;;;;;17.59;67.19;95556.47;5051132;28;20092;-64
2021/08/31 03:57:09;;;;;;;13.38;12.02;;;;;;;17.57;67.01;95563.31;5051417;28;20040;-64
2021/08/31 03:59:34;;;;;;;16.05;13.95;;;;;;;18.09;66.06;95559.88;5051257;28;20045;-64
2021/08/31 04:01:59;;;;;;;10.85;9.85;;;;;;;17.52;66.75;95577.78;5050816;28;20127;-65
2021/08/31 04:04:25;;;;;;;13.50;11.77;;;;;;;17.86;65.83;95567.66;5039643;28;20025;-64
2021/08/31 04:06:50;;;;;;;9.75;8.95;;;;;;;17.47;67.10;95586.06;5030664;28;20041;-64
2021/08/31 04:09:15;;;;;;;13.40;11.48;;;;;;;17.70;66.64;95589.06;5031007;28;20029;-64
2021/08/31 04:11:41;;;;;;;12.95;11.75;;;;;;;17.45;66.73;95580.22;5030891;28;20082;-64
2021/08/31 04:14:06;;;;;;;14.48;13.05;;;;;;;17.82;65.09;95582.94;5030127;28;20467;-67
2021/08/31 04:16:31;;;;;;;12.82;11.57;;;;;;;17.38;67.42;95586.19;5035064;28;20188;-66
2021/08/31 04:18:57;;;;;;;15.93;12.98;;;;;;;17.87;66.04;95594.25;5052232;28;20108;-65
2021/08/31 04:21:22;;;;;;;14.00;12.23;;;;;;;17.54;66.11;95588.19;5049068;28;20061;-65
2021/08/31 04:23:47;;;;;;;15.05;13.40;;;;;;;18.23;65.48;95589.91;5050805;28;20079;-64
2021/08/31 04:26:13;;;;;;;14.32;12.80;;;;;;;18.11;64.90;95606.84;5050049;28;20041;-64
2021/08/31 04:28:38;;;;;;;15.38;13.90;;;;;;;18.33;64.46;95599.41;5050476;28;20063;-67
2021/08/31 04:31:04;;;;;;;15.02;13.43;;;;;;;17.87;65.60;95596.16;5051790;28;20029;-64
2021/08/31 04:33:29;;;;;;;14.70;13.32;;;;;;;17.92;65.26;95604.00;5049972;28;20040;-64
2021/08/31 04:35:54;;;;;;;16.08;13.25;;;;;;;18.42;64.11;95616.19;5049849;28;20044;-64
2021/08/31 04:38:20;;;;;;;14.70;13.25;;;;;;;18.51;63.50;95599.91;5050105;28;20041;-65
2021/08/31 04:40:45;;;;;;;14.55;13.15;;;;;;;17.89;65.05;95599.28;5049692;28;20040;-65
2021/08/31 04:43:11;;;;;;;14.57;13.18;;;;;;;18.32;63.57;95606.69;5050507;28;20021;-65
2021/08/31 04:45:36;;;;;;;13.35;11.95;;;;;;;18.14;63.96;95619.66;5048371;28;20029;-70
2021/08/31 04:48:01;;;;;;;16.10;13.13;;;;;;;18.05;65.04;95615.50;5049599;28;20087;-66
2021/08/31 04:50:27;;;;;;;11.45;10.32;;;;;;;18.12;65.12;95608.44;5049850;28;20542;-66
2021/08/31 04:52:52;;;;;;;12.93;11.82;;;;;;;19.04;62.46;95614.84;5048462;28;20060;-64
2021/08/31 04:55:19;;;;;;;10.95;10.05;;;;;;;18.47;63.19;95607.88;5051553;28;20052;-64
2021/08/31 04:57:44;;;;;;;11.05;10.15;;;;;;;18.34;63.50;95607.16;5045155;28;20039;-64
2021/08/31 05:00:11;;;;;;;11.57;10.45;;;;;;;17.92;64.86;95601.31;5047257;28;20116;-64
2021/08/31 05:02:36;;;;;;;12.35;11.35;;;;;;;18.24;64.11;95615.69;5049148;28;20067;-65
2021/08/31 05:05:03;;;;;;;11.57;10.35;;;;;;;18.86;62.19;95622.44;5049193;28;20025;-65
2021/08/31 05:07:28;;;;;;;11.73;10.73;;;;;;;18.59;62.28;95609.75;5049722;28;20052;-64
2021/08/31 05:09:53;;;;;;;11.38;10.38;;;;;;;19.02;62.07;95616.28;5051513;28;20057;-64
2021/08/31 05:12:19;;;;;;;11.95;10.85;;;;;;;18.91;62.00;95616.03;5048279;28;20701;-64
2021/08/31 05:14:44;;;;;;;11.93;10.98;;;;;;;18.63;63.45;95614.13;5047716;28;20052;-65
2021/08/31 05:17:09;;;;;;;12.00;10.95;;;;;;;18.50;62.10;95591.03;5048830;28;20045;-65
2021/08/31 05:19:35;;;;;;;11.40;10.40;;;;;;;18.37;63.08;95624.50;5049252;28;20017;-65
2021/08/31 05:22:01;;;;;;;11.43;10.43;;;;;;;18.75;63.33;95634.06;5051547;28;20033;-65
2021/08/31 05:24:28;;;;;;;11.05;10.05;;;;;;;18.45;64.42;95642.47;5048763;28;20072;-65
2021/08/31 05:26:53;;;;;;;11.45;10.35;;;;;;;18.03;65.09;95633.94;5046568;28;20041;-65
2021/08/31 05:29:19;;;;;;;11.60;10.60;;;;;;;18.35;63.83;95638.31;5049226;28;20441;-65
2021/08/31 05:31:45;;;;;;;12.27;11.05;;;;;;;18.86;62.90;95635.13;5048796;28;20029;-65
2021/08/31 05:34:10;;;;;;;11.90;10.90;;;;;;;18.64;63.11;95629.16;5050496;28;20019;-66
2021/08/31 05:36:36;;;;;;;12.30;11.30;;;;;;;18.45;63.69;95640.53;5048633;28;20379;-63
2021/08/31 05:39:04;;;;;;;12.93;11.38;;;;;;;19.18;62.19;95644.84;5048674;28;20037;-65
2021/08/31 05:41:30;;;;;;;12.93;11.82;;;;;;;18.99;62.47;95630.44;5048189;28;20037;-67
2021/08/31 05:43:55;;;;;;;12.95;11.70;;;;;;;18.90;61.77;95639.50;5048748;28;20088;-67
2021/08/31 05:46:21;;;;;;;15.32;11.98;;;;;;;19.45;62.10;95647.84;5048987;28;20025;-66
2021/08/31 05:48:46;;;;;;;15.25;12.43;;;;;;;19.53;60.64;95641.47;5043317;28;20071;-65
2021/08/31 05:51:13;;;;;;;12.73;11.63;;;;;;;18.92;61.46;95628.38;5046194;28;20132;-66
2021/08/31 05:53:39;;;;;;;12.43;11.30;;;;;;;18.79;62.48;95651.13;5045947;28;20057;-63
2021/08/31 05:56:04;;;;;;;12.23;11.10;;;;;;;19.07;61.58;95649.19;5049209;28;20025;-64
2021/08/31 05:58:30;;;;;;;14.00;11.73;;;;;;;18.90;62.92;95639.50;5046763;28;20037;-63
2021/08/31 06:00:55;;;;;;;14.30;11.55;;;;;;;19.23;63.14;95658.06;5049804;28;20394;-63
2021/08/31 06:03:21;;;;;;;11.85;10.75;;;;;;;19.02;63.14;95606.28;5048347;28;20040;-70
2021/08/31 06:05:47;;;;;;;12.05;11.05;;;;;;;18.87;62.29;95631.31;5048110;28;20098;-64
2021/08/31 06:08:12;;;;;;;12.07;10.88;;;;;;;19.16;61.66;95647.09;5048840;28;20127;-65
2021/08/31 06:10:42;;;;;;;12.23;11.13;;;;;;;20.21;60.87;95653.84;5048782;28;20025;-64
2021/08/31 06:13:07;;;;;;;11.77;10.77;;;;;;;19.91;60.34;95654.38;5050537;28;20383;-64
2021/08/31 06:15:32;;;;;;;12.10;11.00;;;;;;;19.54;60.67;95651.13;5048469;28;20041;-64
2021/08/31 06:17:58;;;;;;;12.30;11.10;;;;;;;19.72;60.67;95651.59;5046924;28;20040;-64
2021/08/31 06:20:23;;;;;;;10.90;10.00;;;;;;;19.05;61.24;95656.84;5047869;28;20132;-66
2021/08/31 06:22:48;;;;;;;11.52;10.43;;;;;;;19.65;60.97;95660.28;5048778;28;20045;-63
2021/08/31 06:25:14;;;;;;;12.50;11.35;;;;;;;19.14;61.84;95652.06;5050365;28;20390;-62
2021/08/31 06:27:40;;;;;;;10.63;9.77;;;;;;;19.10;61.12;95663.91;5048248;28;20164;-62
2021/08/31 06:30:06;;;;;;;11.38;10.27;;;;;;;18.57;63.33;95661.25;5048088;28;20060;-62
2021/08/31 06:32:31;;;;;;;10.60;9.70;;;;;;;18.12;64.97;95667.69;5046369;28;20029;-62
2021/08/31 06:34:56;;;;;;;11.32;10.23;;;;;;;18.70;63.95;95667.44;5045542;28;20073;-65
2021/08/31 06:37:22;;;;;;;11.90;10.80;;;;;;;18.39;64.19;95646.53;5049528;28;20040;-68
2021/08/31 06:39:47;;;;;;;11.73;10.65;;;;;;;18.66;63.11;95659.22;5046907;28;20255;-66
2021/08/31 06:42:13;;;;;;;10.85;9.93;;;;;;;18.12;65.53;95662.28;5048252;28;20119;-69
2021/08/31 06:44:38;;;;;;;10.95;10.05;;;;;;;18.49;64.64;95664.91;5047721;28;20044;-66
2021/08/31 06:47:05;;;;;;;11.43;9.93;;;;;;;19.22;63.30;95664.59;5047586;28;20110;-66
2021/08/31 06:49:31;;;;;;;12.00;9.75;;;;;;;18.74;63.16;95670.25;5047866;28;20045;-67
2021/08/31 06:51:56;;;;;;;11.00;9.95;;;;;;;18.85;62.42;95668.63;5049933;28;20032;-66
2021/08/31 06:54:22;;;;;;;11.82;10.18;;;;;;;19.14;62.46;95670.94;5047874;28;20037;-67
2021/08/31 06:56:47;;;;;;;11.38;10.32;;;;;;;18.10;64.72;95675.28;5047923;28;20080;-67
2021/08/31 06:59:12;;;;;;;12.05;10.93;;;;;;;17.95;65.63;95667.91;5048095;28;20040;-65
2021/08/31 07:01:38;;;;;;;13.00;11.75;;;;;;;18.21;66.10;95666.75;5047914;28;20445;-66
2021/08/31 07:04:03;;;;;;;20.92;15.70;;;;;;;17.98;67.21;95688.00;5049264;28;20521;-65
2021/08/31 07:06:29;;;;;;;51.08;24.35;;;;;;;18.15;66.90;95677.75;5047629;28;20448;-65
2021/08/31 07:08:55;;;;;;;47.85;22.95;;;;;;;17.93;67.14;95678.22;5046473;28;20049;-66
2021/08/31 07:11:20;;;;;;;55.85;25.88;;;;;;;17.66;67.71;95669.69;5047781;28;20037;-66
2021/08/31 07:13:45;;;;;;;61.30;27.70;;;;;;;18.02;66.84;95667.34;5047905;28;20124;-66
2021/08/31 07:16:11;;;;;;;80.20;30.85;;;;;;;18.63;65.68;95654.53;5049491;28;20063;-66
2021/08/31 07:18:36;;;;;;;86.28;32.90;;;;;;;18.93;64.32;95663.06;5047366;28;20037;-66
2021/08/31 07:21:01;;;;;;;74.07;29.00;;;;;;;18.76;64.78;95684.16;5047511;28;20029;-66
2021/08/31 07:23:27;;;;;;;81.97;30.35;;;;;;;18.65;65.54;95681.13;5047465;28;20037;-66
2021/08/31 07:25:52;;;;;;;56.70;24.92;;;;;;;18.69;64.37;95673.97;5046971;28;20040;-66
2021/08/31 07:28:17;;;;;;;62.05;26.13;;;;;;;18.11;67.29;95698.38;5049549;28;20044;-66
2021/08/31 07:30:43;;;;;;;64.30;26.67;;;;;;;18.77;65.30;95688.41;5047612;28;20056;-66
2021/08/31 07:33:10;;;;;;;85.22;30.77;;;;;;;18.90;64.81;95698.03;5047386;28;20481;-66
2021/08/31 07:35:36;;;;;;;41.75;21.52;;;;;;;17.33;68.93;95704.72;5047160;28;20041;-66
2021/08/31 07:38:02;;;;;;;47.78;24.50;;;;;;;18.50;66.00;95698.78;5047466;28;20095;-66
2021/08/31 07:40:28;;;;;;;53.35;26.13;;;;;;;19.20;63.95;95710.00;5049418;28;20366;-66
2021/08/31 07:42:53;;;;;;;58.83;27.35;;;;;;;19.17;64.23;95691.81;5046655;28;20037;-66
2021/08/31 07:45:20;;;;;;;59.20;26.48;;;;;;;18.95;64.38;95681.59;5047186;28;20112;-66
2021/08/31 07:47:46;;;;;;;42.28;22.92;;;;;;;18.12;67.15;95705.38;5046811;28;20079;-66
2021/08/31 07:50:12;;;;;;;34.80;21.45;;;;;;;18.36;65.59;95698.34;5048308;28;20067;-66
2021/08/31 07:52:38;;;;;;;43.45;24.27;;;;;;;18.73;64.71;95695.59;5049917;28;20100;-66
2021/08/31 07:55:06;;;;;;;40.10;22.60;;;;;;;18.85;64.64;95693.66;5052837;28;20465;-66
2021/08/31 07:57:31;;;;;;;31.45;18.33;;;;;;;18.18;66.92;95693.25;5050950;28;20045;-66
2021/08/31 07:59:57;;;;;;;30.17;19.45;;;;;;;18.32;66.37;95719.78;5049704;28;20037;-66
2021/08/31 08:02:23;;;;;;;35.97;21.52;;;;;;;18.38;65.61;95704.22;5050444;28;20567;-66
2021/08/31 08:04:48;;;;;;;33.80;21.35;;;;;;;18.27;65.97;95711.16;5050360;28;20049;-65
2021/08/31 08:07:13;;;;;;;33.70;19.98;;;;;;;17.73;68.00;95693.38;5052616;28;20386;-66
2021/08/31 08:09:39;;;;;;;31.92;20.65;;;;;;;18.16;67.08;95738.53;5050551;28;20156;-65
2021/08/31 08:12:04;;;;;;;41.10;22.73;;;;;;;18.30;66.27;95716.66;5050457;28;20442;-65
2021/08/31 08:14:30;;;;;;;31.05;21.35;;;;;;;18.48;66.43;95733.38;5050448;28;20041;-66
2021/08/31 08:16:55;;;;;;;38.13;22.75;;;;;;;18.21;66.55;95720.59;5050475;28;20116;-66
2021/08/31 08:19:21;;;;;;;38.03;22.80;;;;;;;18.08;66.25;95720.63;5052135;28;20505;-66
2021/08/31 08:21:46;;;;;;;35.63;22.33;;;;;;;18.60;65.17;95732.56;5049181;28;20044;-66
2021/08/31 08:24:11;;;;;;;30.02;20.33;;;;;;;18.54;66.43;95740.09;5049990;28;20064;-66
2021/08/31 08:26:37;;;;;;;22.00;16.23;;;;;;;18.49;65.08;95728.75;5048721;28;20041;-66
2021/08/31 08:29:05;;;;;;;17.23;15.43;;;;;;;17.97;66.29;95714.13;5050570;28;20050;-66
2021/08/31 08:31:33;;;;;;;19.73;16.40;;;;;;;18.21;65.05;95723.28;5049163;28;20099;-65
2021/08/31 08:33:59;;;;;;;18.42;16.45;;;;;;;19.73;62.62;95743.00;5052007;28;20493;-66
2021/08/31 08:36:25;;;;;;;15.90;14.38;;;;;;;18.87;63.68;95739.13;5049610;28;20538;-65
2021/08/31 08:38:50;;;;;;;12.98;11.80;;;;;;;18.89;64.22;95750.38;5050111;28;20044;-67
2021/08/31 08:41:16;;;;;;;14.48;13.07;;;;;;;19.85;62.65;95749.44;5049959;28;20041;-66
2021/08/31 08:43:42;;;;;;;13.73;12.52;;;;;;;18.74;64.09;95743.78;5049970;28;20536;-66
2021/08/31 08:46:07;;;;;;;13.38;12.15;;;;;;;19.42;62.90;95759.91;5051654;28;20092;-66
2021/08/31 08:48:33;;;;;;;13.00;11.90;;;;;;;18.27;64.98;95755.06;5048105;28;20115;-66
2021/08/31 08:51:01;;;;;;;14.40;12.38;;;;;;;19.02;64.01;95762.66;5048308;28;20398;-66
2021/08/31 08:53:28;;;;;;;10.15;9.25;;;;;;;18.16;65.55;95764.69;5049899;28;20033;-66
2021/08/31 08:55:56;;;;;;;12.18;11.18;;;;;;;18.92;65.12;95761.22;5049082;28;20372;-66
2021/08/31 08:58:22;;;;;;;10.63;9.63;;;;;;;18.42;64.40;95764.34;5051729;28;20023;-65
2021/08/31 09:00:55;;;;;;;10.30;9.30;;;;;;;18.50;65.65;95768.81;5048025;28;20072;-66
2021/08/31 09:03:22;;;;;;;11.25;10.32;;;;;;;20.36;62.08;95752.97;5049202;28;20393;-66
2021/08/31 09:05:48;;;;;;;9.43;8.68;;;;;;;21.29;57.69;95771.97;5049234;28;20037;-67
2021/08/31 09:08:14;;;;;;;9.52;8.82;;;;;;;20.58;58.93;95753.50;5048462;28;20041;-66
2021/08/31 09:10:42;;;;;;;9.05;8.25;;;;;;;19.64;60.83;95761.28;5048161;28;20491;-66
2021/08/31 09:13:09;;;;;;;8.90;8.27;;;;;;;20.88;58.13;95748.31;5051600;28;20028;-66
2021/08/31 09:15:37;;;;;;;9.20;8.50;;;;;;;21.32;58.36;95769.72;5049114;28;20049;-66
2021/08/31 09:18:12;;;;;;;8.70;8.00;;;;;;;20.11;60.68;95762.41;5049115;28;20043;-66
2021/08/31 09:20:37;;;;;;;7.68;7.10;;;;;;;19.52;61.42;95761.31;5049041;28;20040;-66
2021/08/31 09:23:08;;;;;;;8.30;7.43;;;;;;;20.12;59.64;95762.09;5048959;28;20120;-66
2021/08/31 09:25:41;;;;;;;8.00;7.40;;;;;;;19.65;60.58;95770.16;5048833;28;20449;-66
2021/08/31 09:28:20;;;;;;;8.95;8.15;;;;;;;19.63;61.36;95770.50;5051560;28;20025;-66
2021/08/31 09:30:55;;;;;;;6.88;6.38;;;;;;;20.88;56.64;95768.06;5049240;28;20037;-66
2021/08/31 09:33:20;;;;;;;6.90;6.40;;;;;;;20.37;56.21;95759.16;5048994;28;20037;-67
2021/08/31 09:36:00;;;;;;;7.50;6.90;;;;;;;19.90;60.43;95765.38;5047194;28;20117;-66
2021/08/31 09:38:51;;;;;;;7.13;6.53;;;;;;;19.94;58.82;95766.25;5049236;28;20140;-66
2021/08/31 09:41:33;;;;;;;6.90;6.40;;;;;;;19.67;58.49;95784.88;5047634;28;20090;-67
2021/08/31 09:44:01;;;;;;;8.05;7.38;;;;;;;20.33;58.81;95780.72;5048618;28;20048;-67
2021/08/31 09:46:49;;;;;;;8.25;7.45;;;;;;;21.37;55.79;95783.75;5062312;23;20048;-72
2021/08/31 09:49:29;;;;;;;6.97;6.47;;;;;;;21.62;54.90;95769.91;5007917;28;20042;-72
2021/08/31 09:52:03;;;;;;;6.85;6.28;;;;;;;20.84;55.76;95772.59;4990150;28;20048;-72
2021/08/31 09:54:28;;;;;;;6.15;5.53;;;;;;;21.10;54.95;95768.50;4988590;28;20129;-74
2021/08/31 09:56:54;;;;;;;6.07;5.63;;;;;;;20.55;56.84;95773.91;4990393;28;20626;-75
2021/08/31 09:59:22;;;;;;;5.60;5.10;;;;;;;21.65;54.18;95752.91;4989510;28;20162;-71
2021/08/31 10:01:48;;;;;;;5.20;4.80;;;;;;;21.45;51.56;95769.22;4988513;28;20041;-79
2021/08/31 10:04:13;;;;;;;5.10;4.80;;;;;;;22.22;53.60;95764.75;4990894;28;20084;-73
2021/08/31 10:06:39;;;;;;;5.07;4.68;;;;;;;22.33;50.78;95765.69;4989621;28;20080;-74
2021/08/31 10:09:05;;;;;;;4.65;4.35;;;;;;;21.76;52.54;95768.22;4987850;28;20116;-72
2021/08/31 10:11:32;;;;;;;4.60;4.20;;;;;;;22.97;48.95;95771.25;4972300;28;20066;-74
2021/08/31 10:13:59;;;;;;;4.82;4.47;;;;;;;22.00;51.26;95769.00;4990172;28;20034;-77
2021/08/31 10:16:24;;;;;;;4.75;4.13;;;;;;;20.92;53.22;95768.91;4975198;28;20068;-80
2021/08/31 10:18:50;;;;;;;5.03;4.63;;;;;;;21.80;51.34;95757.44;4990521;28;20419;-78
2021/08/31 10:21:16;;;;;;;4.63;4.15;;;;;;;21.65;52.46;95761.03;4991429;28;20038;-76
2021/08/31 10:23:47;;;;;;;4.38;4.07;;;;;;;21.23;52.32;95767.97;4989089;28;20066;-81
2021/08/31 10:26:27;;;;;;;4.00;3.70;;;;;;;22.21;50.63;95777.50;4990217;28;20042;-80
2021/08/31 10:29:28;;;;;;;3.70;3.40;;;;;;;22.16;51.23;95768.91;4990542;28;20034;-80
2021/08/31 10:31:56;;;;;;;3.90;3.60;;;;;;;21.98;48.99;95774.78;4934765;29;20035;-81
2021/08/31 10:34:44;;;;;;;4.00;3.63;;;;;;;21.71;51.06;95782.06;4983949;28;21122;-82
2021/08/31 10:37:12;;;;;;;3.95;3.60;;;;;;;22.01;50.27;95786.84;4991165;28;20507;-82
2021/08/31 10:39:52;;;;;;;3.75;3.45;;;;;;;24.11;46.18;95780.66;4990830;28;20038;-81
2021/08/31 10:42:44;;;;;;;4.97;4.15;;;;;;;23.27;45.26;95790.25;4989286;28;20037;-82
2021/08/31 10:45:24;;;;;;;3.85;3.55;;;;;;;22.63;48.14;95792.09;4973863;28;20043;-81
2021/08/31 10:47:50;;;;;;;3.83;3.53;;;;;;;21.91;48.17;95796.34;4990001;28;20069;-83
2021/08/31 10:50:18;;;;;;;4.57;4.18;;;;;;;20.59;53.00;95806.41;4991119;28;20453;-82
2021/08/31 10:52:50;;;;;;;3.80;3.50;;;;;;;20.03;53.46;95799.28;4989853;28;20030;-83
2021/08/31 10:55:25;;;;;;;4.40;4.10;;;;;;;20.50;54.72;95814.72;4976053;28;20050;-82
2021/08/31 10:57:51;;;;;;;4.47;4.07;;;;;;;19.62;54.76;95812.13;4989642;28;20559;-82
2021/08/31 11:00:16;;;;;;;4.72;4.38;;;;;;;19.70;55.09;95804.97;4973543;28;20050;-83
2021/08/31 11:02:51;;;;;;;4.30;4.00;;;;;;;19.98;55.87;95808.41;4989848;28;20057;-81
2021/08/31 11:05:23;;;;;;;4.00;3.70;;;;;;;19.96;55.30;95812.59;4989250;28;20081;-84
2021/08/31 11:07:52;;;;;;;4.65;4.25;;;;;;;20.53;54.21;95814.00;4973548;28;20047;-82
2021/08/31 11:10:21;;;;;;;4.25;3.92;;;;;;;20.43;53.47;95801.78;4975947;28;20419;-82
2021/08/31 11:12:48;;;;;;;4.13;3.72;;;;;;;20.73;51.65;95810.22;4972631;28;20482;-81
2021/08/31 11:15:24;;;;;;;4.25;3.83;;;;;;;20.94;52.60;95818.03;4973492;28;20043;-81
2021/08/31 11:17:51;;;;;;;4.88;4.38;;;;;;;21.98;49.91;95820.06;4973125;28;20050;-84
2021/08/31 11:20:29;;;;;;;4.70;3.75;;;;;;;21.54;49.67;95825.81;4973705;28;20057;-82
2021/08/31 11:23:10;;;;;;;3.90;3.50;;;;;;;21.44;49.47;95829.09;4990079;28;20558;-83